Decoded Metar for YBHM (HAMILTON ISLAND in AUSTRALIA) (IATA:N/A) | Meteo·Mobile Aviation Weather
aviador You're here:

YBHM Decoded Metar

HAMILTON ISLAND in AUSTRALIA
Report Time2019-01-17 01:00:00
UTC Time2019-01-17 01:11:54
Flight Rules vfr VFR
Wind100° at 12 kt
W.Decomp.*RWY 14: 8.0 kt HW 8.9 kt LCW
W.Rank100° ranks 6
Current wind is below 100° avg. (13.8)
Visibility9999 m
Phenomena:N/A
Clouds:Broken 031 Hf
Expected CloudBase > 2,800 ft AGL from Temp-Dew spread
Ceiling3,100 ft
Temp29°C (ISA +14)
Dew Point22°C (66% RH)
Heat Index32.0°C
QNH1012 hPa
Density Alt2,008 ft
Elevation16 ft
Report Wrong Elevation
Raw Report
METAR YBHM 170100Z AUTO 10012KT 9999 // BKN031 29/22 Q1012=

Extra information for YBHM:More info

Metar Taf Metar & Taf Last 4 Metars F.Rules Stats Wind Profile Meteogram Temp Stats Airport Information Weather charts Add Link Nearby VenuesMetar ALERT Operation Metar Decoded Social comments